sensor_id;sensor_type;location;lat;lon;timestamp;P1;durP1;ratioP1;P2;durP2;ratioP2
51961;SDS011;37986;51.238;17.128;2022-08-19T00:01:39;10.18;;;9.18;;
51961;SDS011;37986;51.238;17.128;2022-08-19T00:04:08;11.45;;;9.20;;
51961;SDS011;37986;51.238;17.128;2022-08-19T00:06:37;10.20;;;8.25;;
51961;SDS011;37986;51.238;17.128;2022-08-19T00:09:05;9.73;;;8.55;;
51961;SDS011;37986;51.238;17.128;2022-08-19T00:11:34;10.28;;;8.88;;
51961;SDS011;37986;51.238;17.128;2022-08-19T00:14:03;9.65;;;8.35;;
51961;SDS011;37986;51.238;17.128;2022-08-19T00:16:31;10.38;;;8.90;;
51961;SDS011;37986;51.238;17.128;2022-08-19T00:18:57;10.53;;;8.83;;
51961;SDS011;37986;51.238;17.128;2022-08-19T00:21:23;9.68;;;8.48;;
51961;SDS011;37986;51.238;17.128;2022-08-19T00:23:52;10.93;;;8.58;;
51961;SDS011;37986;51.238;17.128;2022-08-19T00:26:20;9.78;;;8.48;;
51961;SDS011;37986;51.238;17.128;2022-08-19T00:28:45;9.20;;;8.08;;
51961;SDS011;37986;51.238;17.128;2022-08-19T00:31:12;8.85;;;8.00;;
51961;SDS011;37986;51.238;17.128;2022-08-19T00:33:38;9.20;;;8.13;;
51961;SDS011;37986;51.238;17.128;2022-08-19T00:36:06;9.68;;;8.68;;
51961;SDS011;37986;51.238;17.128;2022-08-19T00:38:34;10.65;;;8.00;;
51961;SDS011;37986;51.238;17.128;2022-08-19T00:41:02;9.80;;;8.90;;
51961;SDS011;37986;51.238;17.128;2022-08-19T00:43:31;10.63;;;8.45;;
51961;SDS011;37986;51.238;17.128;2022-08-19T00:45:57;10.40;;;8.35;;
51961;SDS011;37986;51.238;17.128;2022-08-19T00:48:23;12.75;;;8.35;;
51961;SDS011;37986;51.238;17.128;2022-08-19T00:50:49;10.88;;;8.78;;
51961;SDS011;37986;51.238;17.128;2022-08-19T00:53:20;9.13;;;8.10;;
51961;SDS011;37986;51.238;17.128;2022-08-19T00:55:49;8.75;;;7.92;;
51961;SDS011;37986;51.238;17.128;2022-08-19T00:58:19;10.95;;;8.65;;
51961;SDS011;37986;51.238;17.128;2022-08-19T01:00:47;10.13;;;8.13;;
51961;SDS011;37986;51.238;17.128;2022-08-19T01:03:16;9.53;;;8.50;;
51961;SDS011;37986;51.238;17.128;2022-08-19T01:05:44;10.98;;;8.30;;
51961;SDS011;37986;51.238;17.128;2022-08-19T01:08:11;12.75;;;8.73;;
51961;SDS011;37986;51.238;17.128;2022-08-19T01:14:29;10.68;;;8.65;;
51961;SDS011;37986;51.238;17.128;2022-08-19T01:16:56;8.58;;;7.78;;
51961;SDS011;37986;51.238;17.128;2022-08-19T01:19:26;8.90;;;7.92;;
51961;SDS011;37986;51.238;17.128;2022-08-19T01:22:08;8.90;;;8.00;;
51961;SDS011;37986;51.238;17.128;2022-08-19T01:24:33;12.95;;;8.18;;
51961;SDS011;37986;51.238;17.128;2022-08-19T01:27:00;10.68;;;8.13;;
51961;SDS011;37986;51.238;17.128;2022-08-19T01:29:31;9.53;;;8.53;;
51961;SDS011;37986;51.238;17.128;2022-08-19T01:31:57;9.25;;;8.10;;
51961;SDS011;37986;51.238;17.128;2022-08-19T01:34:23;13.55;;;9.38;;
51961;SDS011;37986;51.238;17.128;2022-08-19T01:36:49;9.90;;;8.85;;
51961;SDS011;37986;51.238;17.128;2022-08-19T01:39:16;10.35;;;8.70;;
51961;SDS011;37986;51.238;17.128;2022-08-19T01:41:48;11.18;;;8.15;;
51961;SDS011;37986;51.238;17.128;2022-08-19T01:44:15;10.05;;;8.80;;
51961;SDS011;37986;51.238;17.128;2022-08-19T01:46:41;11.40;;;8.88;;
51961;SDS011;37986;51.238;17.128;2022-08-19T01:49:09;9.88;;;8.85;;
51961;SDS011;37986;51.238;17.128;2022-08-19T01:51:35;10.08;;;8.13;;
51961;SDS011;37986;51.238;17.128;2022-08-19T01:54:02;13.38;;;8.83;;
51961;SDS011;37986;51.238;17.128;2022-08-19T01:56:29;9.28;;;8.35;;
51961;SDS011;37986;51.238;17.128;2022-08-19T01:58:59;10.03;;;8.40;;
51961;SDS011;37986;51.238;17.128;2022-08-19T02:01:29;9.73;;;8.58;;
51961;SDS011;37986;51.238;17.128;2022-08-19T02:03:57;12.43;;;8.78;;
51961;SDS011;37986;51.238;17.128;2022-08-19T02:06:26;11.18;;;9.08;;
51961;SDS011;37986;51.238;17.128;2022-08-19T02:08:53;9.38;;;8.35;;
51961;SDS011;37986;51.238;17.128;2022-08-19T02:11:20;14.60;;;8.68;;
51961;SDS011;37986;51.238;17.128;2022-08-19T02:13:58;12.90;;;9.43;;
51961;SDS011;37986;51.238;17.128;2022-08-19T02:16:27;10.00;;;9.00;;
51961;SDS011;37986;51.238;17.128;2022-08-19T02:18:54;11.12;;;8.95;;
51961;SDS011;37986;51.238;17.128;2022-08-19T02:21:21;10.45;;;9.28;;
51961;SDS011;37986;51.238;17.128;2022-08-19T02:23:48;11.38;;;9.33;;
51961;SDS011;37986;51.238;17.128;2022-08-19T02:26:16;16.65;;;9.00;;
51961;SDS011;37986;51.238;17.128;2022-08-19T02:28:43;12.53;;;8.90;;
51961;SDS011;37986;51.238;17.128;2022-08-19T02:31:10;10.08;;;9.08;;
51961;SDS011;37986;51.238;17.128;2022-08-19T02:33:42;10.35;;;9.35;;
51961;SDS011;37986;51.238;17.128;2022-08-19T02:36:11;11.55;;;9.88;;
51961;SDS011;37986;51.238;17.128;2022-08-19T02:38:38;11.60;;;10.13;;
51961;SDS011;37986;51.238;17.128;2022-08-19T02:41:07;12.33;;;9.25;;
51961;SDS011;37986;51.238;17.128;2022-08-19T02:43:43;11.83;;;9.80;;
51961;SDS011;37986;51.238;17.128;2022-08-19T02:46:17;10.13;;;9.08;;
51961;SDS011;37986;51.238;17.128;2022-08-19T02:48:52;11.20;;;10.13;;
51961;SDS011;37986;51.238;17.128;2022-08-19T02:51:19;16.45;;;10.20;;
51961;SDS011;37986;51.238;17.128;2022-08-19T02:53:48;13.55;;;10.00;;
51961;SDS011;37986;51.238;17.128;2022-08-19T02:56:15;12.00;;;10.80;;
51961;SDS011;37986;51.238;17.128;2022-08-19T02:58:40;11.75;;;10.10;;
51961;SDS011;37986;51.238;17.128;2022-08-19T03:01:08;11.80;;;10.50;;
51961;SDS011;37986;51.238;17.128;2022-08-19T03:03:35;14.65;;;10.35;;
51961;SDS011;37986;51.238;17.128;2022-08-19T03:06:03;14.85;;;10.90;;
51961;SDS011;37986;51.238;17.128;2022-08-19T03:08:33;12.03;;;10.82;;
51961;SDS011;37986;51.238;17.128;2022-08-19T03:11:00;13.48;;;11.15;;
51961;SDS011;37986;51.238;17.128;2022-08-19T03:13:25;11.97;;;10.58;;
51961;SDS011;37986;51.238;17.128;2022-08-19T03:15:51;15.25;;;11.30;;
51961;SDS011;37986;51.238;17.128;2022-08-19T03:18:17;15.18;;;11.38;;
51961;SDS011;37986;51.238;17.128;2022-08-19T03:20:44;12.33;;;11.03;;
51961;SDS011;37986;51.238;17.128;2022-08-19T03:23:13;15.50;;;11.57;;
51961;SDS011;37986;51.238;17.128;2022-08-19T03:25:42;13.60;;;10.75;;
51961;SDS011;37986;51.238;17.128;2022-08-19T03:28:12;13.25;;;11.43;;
51961;SDS011;37986;51.238;17.128;2022-08-19T03:30:40;15.03;;;11.05;;
51961;SDS011;37986;51.238;17.128;2022-08-19T03:33:09;15.98;;;11.33;;
51961;SDS011;37986;51.238;17.128;2022-08-19T03:35:37;16.17;;;11.15;;
51961;SDS011;37986;51.238;17.128;2022-08-19T03:38:04;15.13;;;11.18;;
51961;SDS011;37986;51.238;17.128;2022-08-19T03:40:32;13.20;;;11.70;;
51961;SDS011;37986;51.238;17.128;2022-08-19T03:43:00;13.83;;;12.33;;
51961;SDS011;37986;51.238;17.128;2022-08-19T03:45:26;14.13;;;11.70;;
51961;SDS011;37986;51.238;17.128;2022-08-19T03:47:52;16.48;;;12.03;;
51961;SDS011;37986;51.238;17.128;2022-08-19T03:50:19;14.40;;;11.83;;
51961;SDS011;37986;51.238;17.128;2022-08-19T03:52:52;15.08;;;10.75;;
51961;SDS011;37986;51.238;17.128;2022-08-19T03:55:16;17.25;;;12.37;;
51961;SDS011;37986;51.238;17.128;2022-08-19T03:57:44;14.50;;;12.37;;
51961;SDS011;37986;51.238;17.128;2022-08-19T04:00:11;19.07;;;16.20;;
51961;SDS011;37986;51.238;17.128;2022-08-19T04:02:38;31.65;;;26.10;;
51961;SDS011;37986;51.238;17.128;2022-08-19T04:05:04;21.10;;;16.85;;
51961;SDS011;37986;51.238;17.128;2022-08-19T04:07:33;16.27;;;12.23;;
51961;SDS011;37986;51.238;17.128;2022-08-19T04:09:59;14.43;;;12.93;;
51961;SDS011;37986;51.238;17.128;2022-08-19T04:12:25;15.93;;;13.32;;
51961;SDS011;37986;51.238;17.128;2022-08-19T04:14:52;13.78;;;12.10;;
51961;SDS011;37986;51.238;17.128;2022-08-19T04:17:18;13.65;;;11.78;;
51961;SDS011;37986;51.238;17.128;2022-08-19T04:19:43;15.30;;;12.37;;
51961;SDS011;37986;51.238;17.128;2022-08-19T04:22:09;14.58;;;12.18;;
51961;SDS011;37986;51.238;17.128;2022-08-19T04:24:36;17.62;;;11.88;;
51961;SDS011;37986;51.238;17.128;2022-08-19T04:27:03;14.03;;;12.58;;
51961;SDS011;37986;51.238;17.128;2022-08-19T04:29:31;14.33;;;11.88;;
51961;SDS011;37986;51.238;17.128;2022-08-19T04:31:58;14.50;;;11.70;;
51961;SDS011;37986;51.238;17.128;2022-08-19T04:34:25;13.98;;;11.60;;
51961;SDS011;37986;51.238;17.128;2022-08-19T04:36:54;19.25;;;12.80;;
51961;SDS011;37986;51.238;17.128;2022-08-19T04:39:23;14.38;;;12.23;;
51961;SDS011;37986;51.238;17.128;2022-08-19T04:42:13;14.28;;;11.40;;
51961;SDS011;37986;51.238;17.128;2022-08-19T04:44:57;12.98;;;11.53;;
51961;SDS011;37986;51.238;17.128;2022-08-19T04:47:24;12.85;;;10.95;;
51961;SDS011;37986;51.238;17.128;2022-08-19T04:49:50;12.07;;;10.88;;
51961;SDS011;37986;51.238;17.128;2022-08-19T04:52:16;11.93;;;10.82;;
51961;SDS011;37986;51.238;17.128;2022-08-19T04:54:42;13.88;;;11.28;;
51961;SDS011;37986;51.238;17.128;2022-08-19T04:57:08;11.60;;;10.48;;
51961;SDS011;37986;51.238;17.128;2022-08-19T04:59:36;11.22;;;10.13;;
51961;SDS011;37986;51.238;17.128;2022-08-19T05:02:03;14.00;;;10.98;;
51961;SDS011;37986;51.238;17.128;2022-08-19T05:04:31;13.40;;;10.20;;
51961;SDS011;37986;51.238;17.128;2022-08-19T05:06:59;12.60;;;11.40;;
51961;SDS011;37986;51.238;17.128;2022-08-19T05:09:25;15.30;;;10.63;;
51961;SDS011;37986;51.238;17.128;2022-08-19T05:11:52;11.68;;;10.50;;
51961;SDS011;37986;51.238;17.128;2022-08-19T05:14:18;13.32;;;10.38;;
51961;SDS011;37986;51.238;17.128;2022-08-19T05:16:46;16.95;;;10.65;;
51961;SDS011;37986;51.238;17.128;2022-08-19T05:19:12;12.45;;;11.15;;
51961;SDS011;37986;51.238;17.128;2022-08-19T05:21:56;13.85;;;10.78;;
51961;SDS011;37986;51.238;17.128;2022-08-19T05:24:41;13.13;;;10.82;;
51961;SDS011;37986;51.238;17.128;2022-08-19T05:27:06;14.98;;;11.53;;
51961;SDS011;37986;51.238;17.128;2022-08-19T05:29:33;16.05;;;12.18;;
51961;SDS011;37986;51.238;17.128;2022-08-19T05:31:59;17.25;;;12.13;;
51961;SDS011;37986;51.238;17.128;2022-08-19T05:34:27;15.23;;;12.78;;
51961;SDS011;37986;51.238;17.128;2022-08-19T05:36:54;19.42;;;12.15;;
51961;SDS011;37986;51.238;17.128;2022-08-19T05:39:24;15.10;;;12.58;;
51961;SDS011;37986;51.238;17.128;2022-08-19T05:41:54;14.50;;;12.37;;
51961;SDS011;37986;51.238;17.128;2022-08-19T05:44:26;28.75;;;14.18;;
51961;SDS011;37986;51.238;17.128;2022-08-19T05:46:58;14.83;;;12.35;;
51961;SDS011;37986;51.238;17.128;2022-08-19T05:49:27;30.85;;;14.07;;
51961;SDS011;37986;51.238;17.128;2022-08-19T05:51:54;16.40;;;11.97;;
51961;SDS011;37986;51.238;17.128;2022-08-19T05:54:21;17.55;;;12.30;;
51961;SDS011;37986;51.238;17.128;2022-08-19T05:56:49;17.82;;;13.40;;
51961;SDS011;37986;51.238;17.128;2022-08-19T05:59:17;20.82;;;13.32;;
51961;SDS011;37986;51.238;17.128;2022-08-19T06:01:47;24.30;;;13.58;;
51961;SDS011;37986;51.238;17.128;2022-08-19T06:04:19;21.40;;;12.93;;
51961;SDS011;37986;51.238;17.128;2022-08-19T06:06:50;25.45;;;13.40;;
51961;SDS011;37986;51.238;17.128;2022-08-19T06:09:17;82.20;;;53.33;;
51961;SDS011;37986;51.238;17.128;2022-08-19T06:11:45;148.10;;;113.00;;
51961;SDS011;37986;51.238;17.128;2022-08-19T06:14:15;174.20;;;131.25;;
51961;SDS011;37986;51.238;17.128;2022-08-19T06:16:46;31.10;;;23.22;;
51961;SDS011;37986;51.238;17.128;2022-08-19T06:19:15;18.07;;;13.05;;
51961;SDS011;37986;51.238;17.128;2022-08-19T06:21:46;19.77;;;13.00;;
51961;SDS011;37986;51.238;17.128;2022-08-19T06:24:15;81.32;;;53.48;;
51961;SDS011;37986;51.238;17.128;2022-08-19T06:26:45;19.53;;;13.97;;
51961;SDS011;37986;51.238;17.128;2022-08-19T06:29:13;16.73;;;13.00;;
51961;SDS011;37986;51.238;17.128;2022-08-19T06:31:42;16.37;;;12.15;;
51961;SDS011;37986;51.238;17.128;2022-08-19T06:34:13;18.80;;;12.58;;
51961;SDS011;37986;51.238;17.128;2022-08-19T06:36:40;21.20;;;12.50;;
51961;SDS011;37986;51.238;17.128;2022-08-19T06:39:13;14.73;;;11.93;;
51961;SDS011;37986;51.238;17.128;2022-08-19T06:41:46;15.93;;;12.50;;
51961;SDS011;37986;51.238;17.128;2022-08-19T06:44:16;16.05;;;12.50;;
51961;SDS011;37986;51.238;17.128;2022-08-19T06:46:44;15.05;;;12.20;;
51961;SDS011;37986;51.238;17.128;2022-08-19T06:49:10;19.90;;;12.23;;
51961;SDS011;37986;51.238;17.128;2022-08-19T06:51:42;12.88;;;11.65;;
51961;SDS011;37986;51.238;17.128;2022-08-19T06:54:13;12.90;;;11.50;;
51961;SDS011;37986;51.238;17.128;2022-08-19T06:56:40;15.32;;;12.10;;
51961;SDS011;37986;51.238;17.128;2022-08-19T06:59:07;13.95;;;12.33;;
51961;SDS011;37986;51.238;17.128;2022-08-19T07:01:50;14.80;;;11.85;;
51961;SDS011;37986;51.238;17.128;2022-08-19T07:04:19;16.10;;;12.37;;
51961;SDS011;37986;51.238;17.128;2022-08-19T07:06:48;22.35;;;12.28;;
51961;SDS011;37986;51.238;17.128;2022-08-19T07:09:15;13.75;;;11.65;;
51961;SDS011;37986;51.238;17.128;2022-08-19T07:11:44;13.65;;;11.60;;
51961;SDS011;37986;51.238;17.128;2022-08-19T07:14:13;15.00;;;11.53;;
51961;SDS011;37986;51.238;17.128;2022-08-19T07:16:39;13.22;;;10.98;;
51961;SDS011;37986;51.238;17.128;2022-08-19T07:19:05;14.07;;;10.45;;
51961;SDS011;37986;51.238;17.128;2022-08-19T07:21:32;13.75;;;10.93;;
51961;SDS011;37986;51.238;17.128;2022-08-19T07:23:58;16.17;;;10.50;;
51961;SDS011;37986;51.238;17.128;2022-08-19T07:26:30;12.88;;;10.30;;
51961;SDS011;37986;51.238;17.128;2022-08-19T07:28:56;11.38;;;10.00;;
51961;SDS011;37986;51.238;17.128;2022-08-19T07:33:53;15.83;;;10.88;;
51961;SDS011;37986;51.238;17.128;2022-08-19T07:36:27;11.43;;;10.23;;
51961;SDS011;37986;51.238;17.128;2022-08-19T07:38:54;13.18;;;10.75;;
51961;SDS011;37986;51.238;17.128;2022-08-19T07:41:21;13.00;;;11.50;;
51961;SDS011;37986;51.238;17.128;2022-08-19T07:43:50;13.83;;;9.90;;
51961;SDS011;37986;51.238;17.128;2022-08-19T07:46:17;15.28;;;9.75;;
51961;SDS011;37986;51.238;17.128;2022-08-19T07:48:45;13.00;;;10.55;;
51961;SDS011;37986;51.238;17.128;2022-08-19T07:51:14;14.05;;;10.58;;
51961;SDS011;37986;51.238;17.128;2022-08-19T07:53:44;15.13;;;10.80;;
51961;SDS011;37986;51.238;17.128;2022-08-19T07:56:11;15.35;;;10.93;;
51961;SDS011;37986;51.238;17.128;2022-08-19T07:58:40;11.18;;;9.13;;
51961;SDS011;37986;51.238;17.128;2022-08-19T08:01:10;14.25;;;10.20;;
51961;SDS011;37986;51.238;17.128;2022-08-19T08:03:39;16.65;;;9.48;;
51961;SDS011;37986;51.238;17.128;2022-08-19T08:06:25;16.48;;;10.38;;
51961;SDS011;37986;51.238;17.128;2022-08-19T08:09:10;14.15;;;9.05;;
51961;SDS011;37986;51.238;17.128;2022-08-19T08:14:13;17.92;;;8.90;;
51961;SDS011;37986;51.238;17.128;2022-08-19T08:16:42;11.22;;;9.10;;
51961;SDS011;37986;51.238;17.128;2022-08-19T08:19:09;12.93;;;9.55;;
51961;SDS011;37986;51.238;17.128;2022-08-19T08:21:35;14.43;;;8.98;;
51961;SDS011;37986;51.238;17.128;2022-08-19T08:24:01;16.42;;;9.63;;
51961;SDS011;37986;51.238;17.128;2022-08-19T08:26:27;9.28;;;8.00;;
51961;SDS011;37986;51.238;17.128;2022-08-19T08:28:53;12.05;;;9.18;;
51961;SDS011;37986;51.238;17.128;2022-08-19T08:31:19;16.67;;;8.30;;
51961;SDS011;37986;51.238;17.128;2022-08-19T08:33:46;19.40;;;8.33;;
51961;SDS011;37986;51.238;17.128;2022-08-19T08:36:13;12.80;;;7.83;;
51961;SDS011;37986;51.238;17.128;2022-08-19T08:38:40;11.30;;;7.65;;
51961;SDS011;37986;51.238;17.128;2022-08-19T08:43:54;9.80;;;7.87;;
51961;SDS011;37986;51.238;17.128;2022-08-19T08:51:54;12.88;;;7.58;;
51961;SDS011;37986;51.238;17.128;2022-08-19T08:54:28;9.38;;;7.30;;
51961;SDS011;37986;51.238;17.128;2022-08-19T08:56:57;11.12;;;7.15;;
51961;SDS011;37986;51.238;17.128;2022-08-19T08:59:25;12.58;;;7.15;;
51961;SDS011;37986;51.238;17.128;2022-08-19T09:01:58;9.90;;;7.28;;
51961;SDS011;37986;51.238;17.128;2022-08-19T09:04:24;10.25;;;7.20;;
51961;SDS011;37986;51.238;17.128;2022-08-19T09:09:47;11.28;;;7.00;;
51961;SDS011;37986;51.238;17.128;2022-08-19T09:15:09;11.50;;;7.22;;
51961;SDS011;37986;51.238;17.128;2022-08-19T09:17:37;10.60;;;7.92;;
51961;SDS011;37986;51.238;17.128;2022-08-19T09:20:05;13.20;;;7.17;;
51961;SDS011;37986;51.238;17.128;2022-08-19T09:22:36;7.58;;;6.87;;
51961;SDS011;37986;51.238;17.128;2022-08-19T09:25:05;17.17;;;7.15;;
51961;SDS011;37986;51.238;17.128;2022-08-19T09:27:34;10.40;;;7.20;;
51961;SDS011;37986;51.238;17.128;2022-08-19T09:30:03;9.35;;;7.05;;
51961;SDS011;37986;51.238;17.128;2022-08-19T09:32:31;12.45;;;6.85;;
51961;SDS011;37986;51.238;17.128;2022-08-19T09:34:56;13.53;;;7.47;;
51961;SDS011;37986;51.238;17.128;2022-08-19T09:37:24;12.70;;;7.47;;
51961;SDS011;37986;51.238;17.128;2022-08-19T09:39:50;14.63;;;7.62;;
51961;SDS011;37986;51.238;17.128;2022-08-19T09:42:16;15.10;;;7.47;;
51961;SDS011;37986;51.238;17.128;2022-08-19T09:44:42;14.05;;;6.85;;
51961;SDS011;37986;51.238;17.128;2022-08-19T09:47:10;8.70;;;7.08;;
51961;SDS011;37986;51.238;17.128;2022-08-19T09:49:38;8.45;;;6.67;;
51961;SDS011;37986;51.238;17.128;2022-08-19T09:52:05;9.50;;;7.03;;
51961;SDS011;37986;51.238;17.128;2022-08-19T09:54:34;12.55;;;7.65;;
51961;SDS011;37986;51.238;17.128;2022-08-19T09:57:00;10.90;;;7.42;;
51961;SDS011;37986;51.238;17.128;2022-08-19T09:59:26;11.03;;;7.05;;
51961;SDS011;37986;51.238;17.128;2022-08-19T10:01:53;9.58;;;7.15;;
51961;SDS011;37986;51.238;17.128;2022-08-19T10:04:20;11.05;;;7.37;;
51961;SDS011;37986;51.238;17.128;2022-08-19T10:06:46;7.08;;;6.35;;
51961;SDS011;37986;51.238;17.128;2022-08-19T10:09:15;13.78;;;7.37;;
51961;SDS011;37986;51.238;17.128;2022-08-19T10:11:43;9.95;;;6.80;;
51961;SDS011;37986;51.238;17.128;2022-08-19T10:14:15;7.95;;;6.80;;
51961;SDS011;37986;51.238;17.128;2022-08-19T10:16:42;9.03;;;6.58;;
51961;SDS011;37986;51.238;17.128;2022-08-19T10:19:08;15.72;;;7.42;;
51961;SDS011;37986;51.238;17.128;2022-08-19T10:21:34;12.33;;;7.22;;
51961;SDS011;37986;51.238;17.128;2022-08-19T10:24:02;15.28;;;7.47;;
51961;SDS011;37986;51.238;17.128;2022-08-19T10:26:33;11.70;;;7.62;;
51961;SDS011;37986;51.238;17.128;2022-08-19T10:29:03;9.90;;;7.72;;
51961;SDS011;37986;51.238;17.128;2022-08-19T10:31:31;20.15;;;7.97;;
51961;SDS011;37986;51.238;17.128;2022-08-19T10:33:59;12.55;;;7.53;;
51961;SDS011;37986;51.238;17.128;2022-08-19T10:36:27;12.63;;;8.13;;
51961;SDS011;37986;51.238;17.128;2022-08-19T10:39:03;11.40;;;7.55;;
51961;SDS011;37986;51.238;17.128;2022-08-19T10:41:35;13.62;;;7.97;;
51961;SDS011;37986;51.238;17.128;2022-08-19T10:44:07;12.28;;;7.92;;
51961;SDS011;37986;51.238;17.128;2022-08-19T10:46:37;13.72;;;8.00;;
51961;SDS011;37986;51.238;17.128;2022-08-19T10:49:07;10.00;;;7.70;;
51961;SDS011;37986;51.238;17.128;2022-08-19T10:51:37;8.98;;;6.95;;
51961;SDS011;37986;51.238;17.128;2022-08-19T10:54:23;12.33;;;6.03;;
51961;SDS011;37986;51.238;17.128;2022-08-19T10:56:51;14.98;;;6.25;;
51961;SDS011;37986;51.238;17.128;2022-08-19T10:59:18;11.80;;;6.15;;
51961;SDS011;37986;51.238;17.128;2022-08-19T11:01:48;9.33;;;5.35;;
51961;SDS011;37986;51.238;17.128;2022-08-19T11:04:16;8.35;;;4.50;;
51961;SDS011;37986;51.238;17.128;2022-08-19T11:06:44;9.45;;;4.37;;
51961;SDS011;37986;51.238;17.128;2022-08-19T11:09:18;5.12;;;3.70;;
51961;SDS011;37986;51.238;17.128;2022-08-19T11:11:43;8.53;;;4.25;;
51961;SDS011;37986;51.238;17.128;2022-08-19T11:14:12;8.58;;;5.53;;
51961;SDS011;37986;51.238;17.128;2022-08-19T11:16:40;8.18;;;5.75;;
51961;SDS011;37986;51.238;17.128;2022-08-19T11:19:08;7.58;;;5.28;;
51961;SDS011;37986;51.238;17.128;2022-08-19T11:21:38;12.03;;;5.40;;
51961;SDS011;37986;51.238;17.128;2022-08-19T11:24:12;9.50;;;5.47;;
51961;SDS011;37986;51.238;17.128;2022-08-19T11:26:38;14.25;;;5.80;;
51961;SDS011;37986;51.238;17.128;2022-08-19T11:29:07;6.45;;;5.55;;
51961;SDS011;37986;51.238;17.128;2022-08-19T11:31:39;5.40;;;4.62;;
51961;SDS011;37986;51.238;17.128;2022-08-19T11:34:09;8.63;;;4.85;;
51961;SDS011;37986;51.238;17.128;2022-08-19T11:36:40;11.20;;;5.50;;
51961;SDS011;37986;51.238;17.128;2022-08-19T11:39:09;6.50;;;4.70;;
51961;SDS011;37986;51.238;17.128;2022-08-19T11:41:38;6.53;;;4.80;;
51961;SDS011;37986;51.238;17.128;2022-08-19T11:44:03;6.55;;;4.78;;
51961;SDS011;37986;51.238;17.128;2022-08-19T11:46:32;6.47;;;4.40;;
51961;SDS011;37986;51.238;17.128;2022-08-19T11:49:00;8.50;;;4.58;;
51961;SDS011;37986;51.238;17.128;2022-08-19T11:51:28;6.85;;;4.42;;
51961;SDS011;37986;51.238;17.128;2022-08-19T11:53:56;6.17;;;4.47;;
51961;SDS011;37986;51.238;17.128;2022-08-19T11:56:24;6.95;;;4.58;;
51961;SDS011;37986;51.238;17.128;2022-08-19T11:58:52;5.47;;;4.97;;
51961;SDS011;37986;51.238;17.128;2022-08-19T12:01:20;6.47;;;4.35;;
51961;SDS011;37986;51.238;17.128;2022-08-19T12:03:49;8.40;;;4.87;;
51961;SDS011;37986;51.238;17.128;2022-08-19T12:06:19;9.90;;;5.78;;
51961;SDS011;37986;51.238;17.128;2022-08-19T12:08:50;9.78;;;5.22;;
51961;SDS011;37986;51.238;17.128;2022-08-19T12:11:16;8.83;;;4.58;;
51961;SDS011;37986;51.238;17.128;2022-08-19T12:13:42;9.00;;;5.15;;
51961;SDS011;37986;51.238;17.128;2022-08-19T12:16:13;10.70;;;5.05;;
51961;SDS011;37986;51.238;17.128;2022-08-19T12:18:43;6.78;;;4.28;;
51961;SDS011;37986;51.238;17.128;2022-08-19T12:21:11;7.30;;;4.22;;
51961;SDS011;37986;51.238;17.128;2022-08-19T12:23:40;11.75;;;4.85;;
51961;SDS011;37986;51.238;17.128;2022-08-19T12:26:08;10.23;;;4.75;;
51961;SDS011;37986;51.238;17.128;2022-08-19T12:28:35;11.35;;;4.75;;
51961;SDS011;37986;51.238;17.128;2022-08-19T12:31:01;7.85;;;4.12;;
51961;SDS011;37986;51.238;17.128;2022-08-19T12:33:27;9.83;;;4.45;;
51961;SDS011;37986;51.238;17.128;2022-08-19T12:35:54;7.92;;;4.83;;
51961;SDS011;37986;51.238;17.128;2022-08-19T12:38:20;10.48;;;5.20;;
51961;SDS011;37986;51.238;17.128;2022-08-19T12:40:48;7.47;;;4.58;;
51961;SDS011;37986;51.238;17.128;2022-08-19T12:43:16;7.83;;;5.28;;
51961;SDS011;37986;51.238;17.128;2022-08-19T12:45:45;11.70;;;5.33;;
51961;SDS011;37986;51.238;17.128;2022-08-19T12:48:12;9.90;;;5.30;;
51961;SDS011;37986;51.238;17.128;2022-08-19T12:50:41;10.98;;;5.15;;
51961;SDS011;37986;51.238;17.128;2022-08-19T12:53:12;7.28;;;5.25;;
51961;SDS011;37986;51.238;17.128;2022-08-19T12:55:39;7.22;;;4.28;;
51961;SDS011;37986;51.238;17.128;2022-08-19T12:58:06;10.15;;;4.65;;
51961;SDS011;37986;51.238;17.128;2022-08-19T13:00:32;5.50;;;3.35;;
51961;SDS011;37986;51.238;17.128;2022-08-19T13:02:58;6.55;;;3.65;;
51961;SDS011;37986;51.238;17.128;2022-08-19T13:05:26;5.78;;;3.30;;
51961;SDS011;37986;51.238;17.128;2022-08-19T13:07:55;6.53;;;3.02;;
51961;SDS011;37986;51.238;17.128;2022-08-19T13:10:29;7.37;;;3.27;;
51961;SDS011;37986;51.238;17.128;2022-08-19T13:12:56;4.80;;;3.50;;
51961;SDS011;37986;51.238;17.128;2022-08-19T13:15:25;7.25;;;3.80;;
51961;SDS011;37986;51.238;17.128;2022-08-19T13:17:53;12.07;;;3.50;;
51961;SDS011;37986;51.238;17.128;2022-08-19T13:20:19;5.40;;;3.25;;
51961;SDS011;37986;51.238;17.128;2022-08-19T13:22:46;6.22;;;3.67;;
51961;SDS011;37986;51.238;17.128;2022-08-19T13:25:14;9.53;;;3.35;;
51961;SDS011;37986;51.238;17.128;2022-08-19T13:27:42;6.15;;;3.50;;
51961;SDS011;37986;51.238;17.128;2022-08-19T13:30:09;7.40;;;3.60;;
51961;SDS011;37986;51.238;17.128;2022-08-19T13:32:55;6.83;;;3.17;;
51961;SDS011;37986;51.238;17.128;2022-08-19T13:35:37;7.85;;;3.10;;
51961;SDS011;37986;51.238;17.128;2022-08-19T13:38:04;10.30;;;3.20;;
51961;SDS011;37986;51.238;17.128;2022-08-19T13:40:31;4.17;;;2.90;;
51961;SDS011;37986;51.238;17.128;2022-08-19T13:42:59;5.70;;;3.10;;
51961;SDS011;37986;51.238;17.128;2022-08-19T13:45:27;4.03;;;3.10;;
51961;SDS011;37986;51.238;17.128;2022-08-19T13:47:56;5.75;;;3.05;;
51961;SDS011;37986;51.238;17.128;2022-08-19T13:50:23;4.25;;;3.30;;
51961;SDS011;37986;51.238;17.128;2022-08-19T13:52:53;7.47;;;3.12;;
51961;SDS011;37986;51.238;17.128;2022-08-19T13:55:21;4.87;;;3.12;;
51961;SDS011;37986;51.238;17.128;2022-08-19T13:57:51;4.97;;;2.55;;
51961;SDS011;37986;51.238;17.128;2022-08-19T14:00:21;7.22;;;3.40;;
51961;SDS011;37986;51.238;17.128;2022-08-19T14:02:52;5.55;;;3.15;;
51961;SDS011;37986;51.238;17.128;2022-08-19T14:05:21;6.58;;;3.30;;
51961;SDS011;37986;51.238;17.128;2022-08-19T14:07:47;10.30;;;3.05;;
51961;SDS011;37986;51.238;17.128;2022-08-19T14:10:13;6.65;;;3.72;;
51961;SDS011;37986;51.238;17.128;2022-08-19T14:12:40;5.60;;;3.35;;
51961;SDS011;37986;51.238;17.128;2022-08-19T14:15:07;6.42;;;3.22;;
51961;SDS011;37986;51.238;17.128;2022-08-19T14:17:39;12.73;;;4.42;;
51961;SDS011;37986;51.238;17.128;2022-08-19T14:20:07;7.47;;;4.45;;
51961;SDS011;37986;51.238;17.128;2022-08-19T14:22:36;11.57;;;4.28;;
51961;SDS011;37986;51.238;17.128;2022-08-19T14:25:05;9.23;;;4.30;;
51961;SDS011;37986;51.238;17.128;2022-08-19T14:27:35;7.50;;;3.92;;
51961;SDS011;37986;51.238;17.128;2022-08-19T14:30:03;5.58;;;3.62;;
51961;SDS011;37986;51.238;17.128;2022-08-19T14:32:32;6.30;;;3.52;;
51961;SDS011;37986;51.238;17.128;2022-08-19T14:34:59;9.13;;;3.83;;
51961;SDS011;37986;51.238;17.128;2022-08-19T14:37:29;7.70;;;3.70;;
51961;SDS011;37986;51.238;17.128;2022-08-19T14:39:54;7.92;;;3.55;;
51961;SDS011;37986;51.238;17.128;2022-08-19T14:42:20;11.15;;;3.95;;
51961;SDS011;37986;51.238;17.128;2022-08-19T14:44:46;9.10;;;4.05;;
51961;SDS011;37986;51.238;17.128;2022-08-19T14:47:12;12.35;;;3.70;;
51961;SDS011;37986;51.238;17.128;2022-08-19T14:49:40;4.75;;;3.42;;
51961;SDS011;37986;51.238;17.128;2022-08-19T14:52:10;11.25;;;3.60;;